Terminal Aerodrome Forecast
Issued by NWS

Home | Current Version | Previous Version | Text Only | Print | Product List | Glossary On
Versions: 1 2 3 4 5 6 7 8 9 10 11 12 13 14 15 16 17 18 19 20 21 22 23
000
FTAK31 PANC 040534
TAFAAQ
TAF
PAAQ 040534Z 0406/0506 25007KT P6SM FEW090
     FM040800 VRB04KT P6SM SKC
     FM042000 20006KT P6SM FEW090=

USA.gov is the U.S. government's official web portal to all federal, state and local government web resources and services.